createdAt,value
2023-05-11T00:00:05.810Z,9.6
2023-05-11T00:05:42.773Z,9.6
2023-05-11T00:11:18.999Z,9.6
2023-05-11T00:16:40.017Z,9.6
2023-05-11T00:22:16.882Z,9.5
2023-05-11T00:27:53.046Z,9.4
2023-05-11T00:33:15.560Z,9.4
2023-05-11T00:38:53.954Z,9.3
2023-05-11T00:44:30.917Z,9.3
2023-05-11T00:50:07.248Z,9.3
2023-05-11T00:55:42.973Z,9.2
2023-05-11T01:01:19.508Z,9.2
2023-05-11T01:06:56.384Z,9.1
2023-05-11T01:12:32.695Z,9.1
2023-05-11T01:18:24.997Z,9.1
2023-05-11T01:24:01.016Z,9
2023-05-11T01:29:36.774Z,9
2023-05-11T01:35:31.252Z,8.9
2023-05-11T01:41:22.332Z,8.9
2023-05-11T01:47:14.092Z,8.9
2023-05-11T01:52:50.365Z,8.8
2023-05-11T01:58:41.628Z,8.8
2023-05-11T02:04:34.006Z,8.8
2023-05-11T02:10:25.653Z,8.8
2023-05-11T02:16:17.368Z,8.7
2023-05-11T02:22:09.680Z,8.7
2023-05-11T02:28:01.017Z,8.6
2023-05-11T02:33:37.749Z,8.6
2023-05-11T02:39:29.750Z,8.6
2023-05-11T02:45:21.786Z,8.5
2023-05-11T02:51:14.300Z,8.5
2023-05-11T02:57:06.044Z,8.4
2023-05-11T03:03:00.343Z,8.4
2023-05-11T03:08:52.352Z,8.4
2023-05-11T03:14:45.396Z,8.4
2023-05-11T03:20:37.996Z,8.3
2023-05-11T03:26:29.404Z,8.3
2023-05-11T03:32:24.315Z,8.3
2023-05-11T03:38:15.882Z,8.3
2023-05-11T03:44:09.121Z,8.3
2023-05-11T03:50:01.405Z,8.3
2023-05-11T03:55:53.124Z,8.3
2023-05-11T04:01:44.933Z,8.3
2023-05-11T04:07:38.176Z,8.4
2023-05-11T04:13:29.433Z,8.4
2023-05-11T04:19:21.650Z,8.4
2023-05-11T04:25:13.315Z,8.4
2023-05-11T04:31:05.043Z,8.4
2023-05-11T04:36:56.075Z,8.5
2023-05-11T04:42:48.294Z,8.6
2023-05-11T04:48:39.753Z,8.6
2023-05-11T04:54:16.701Z,8.8
2023-05-11T04:59:52.619Z,8.8
2023-05-11T05:05:31.586Z,8.9
2023-05-11T05:11:07.302Z,9.1
2023-05-11T05:16:58.470Z,9.3
2023-05-11T05:22:50.419Z,9.6
2023-05-11T05:28:41.639Z,10.1
2023-05-11T05:34:18.495Z,10.6
2023-05-11T05:39:55.034Z,11.1
2023-05-11T05:45:48.668Z,11.8
2023-05-11T05:51:40.178Z,12.5
2023-05-11T05:57:33.370Z,13.1
2023-05-11T06:03:27.026Z,13.5
2023-05-11T06:09:39.076Z,13.8
2023-05-11T06:15:15.473Z,14
2023-05-11T06:21:07.482Z,14.1
2023-05-11T06:26:58.230Z,14.3
2023-05-11T06:32:38.598Z,14.4
2023-05-11T06:37:59.834Z,14.6
2023-05-11T06:43:51.684Z,14.8
2023-05-11T06:49:44.835Z,15.1
2023-05-11T06:55:39.648Z,15.3
2023-05-11T07:01:31.619Z,15.7
2023-05-11T07:07:23.488Z,16.3
2023-05-11T07:13:15.949Z,17.3
2023-05-11T07:24:13.884Z,20.6
2023-05-11T07:29:50.716Z,22.3
2023-05-11T07:35:28.486Z,23.8
2023-05-11T07:41:23.341Z,25.8
2023-05-11T07:47:15.686Z,27.2
2023-05-11T07:53:25.966Z,27.9
2023-05-11T07:59:18.153Z,28.1
2023-05-11T08:05:11.081Z,27.9
2023-05-11T08:10:50.408Z,28.4
2023-05-11T08:16:42.743Z,31
2023-05-11T08:22:35.333Z,33.3
2023-05-11T08:28:14.287Z,35.6
2023-05-11T08:34:03.221Z,37.3
2023-05-11T08:39:56.024Z,37.3
2023-05-11T08:45:50.263Z,36.7
2023-05-11T08:52:01.026Z,36.3
2023-05-11T08:57:53.374Z,35.4
2023-05-11T09:03:45.792Z,34.5
2023-05-11T09:09:22.950Z,33.7
2023-05-11T09:15:22.821Z,34.1
2023-05-11T09:21:16.879Z,34.6
2023-05-11T09:26:52.901Z,35.5
2023-05-11T09:32:45.017Z,36.3
2023-05-11T09:38:24.984Z,37.1
2023-05-11T09:44:44.841Z,39.2
2023-05-11T09:50:44.033Z,42.8
2023-05-11T09:56:20.298Z,46.2
2023-05-11T10:01:56.303Z,39.4
2023-05-11T10:07:49.514Z,36.6
2023-05-11T10:13:44.947Z,37.8
2023-05-11T10:19:22.339Z,40.6
2023-05-11T10:25:16.032Z,41.6
2023-05-11T10:31:08.263Z,42.1
2023-05-11T10:36:59.753Z,47.3
2023-05-11T10:42:51.899Z,44.1
2023-05-11T10:48:47.300Z,37.7
2023-05-11T10:54:39.514Z,41.5
2023-05-11T11:00:33.699Z,48
2023-05-11T11:06:26.111Z,45.7
2023-05-11T11:12:18.334Z,43.3
2023-05-11T11:18:10.995Z,40.3
2023-05-11T11:24:02.103Z,49.1
2023-05-11T11:29:53.433Z,47.3
2023-05-11T11:35:45.158Z,40.3
2023-05-11T11:41:58.576Z,38.9
2023-05-11T11:47:51.606Z,40.4
2023-05-11T11:53:43.077Z,41.8
2023-05-11T11:59:35.564Z,42.6
2023-05-11T12:05:30.710Z,41.8
2023-05-11T12:11:22.959Z,40.2
2023-05-11T12:17:14.409Z,38.8
2023-05-11T12:23:05.920Z,37.4
2023-05-11T12:28:57.886Z,36
2023-05-11T12:34:49.807Z,35.1
2023-05-11T12:40:40.982Z,34.6
2023-05-11T12:46:32.488Z,34.4
2023-05-11T12:52:24.137Z,33.6
2023-05-11T12:58:15.443Z,32.7
2023-05-11T13:03:52.408Z,31.3
2023-05-11T13:09:44.062Z,30.4
2023-05-11T13:15:38.284Z,29.8
2023-05-11T13:21:30.980Z,29.3
2023-05-11T13:27:24.201Z,28.8
2023-05-11T13:33:12.734Z,28.1
2023-05-11T13:39:04.115Z,27.4
2023-05-11T13:44:55.660Z,26.9
2023-05-11T13:50:50.954Z,26.3
2023-05-11T13:56:42.812Z,25.6
2023-05-11T14:02:51.976Z,24.8
2023-05-11T14:08:59.044Z,24.3
2023-05-11T14:14:51.550Z,23.8
2023-05-11T14:20:45.838Z,23.6
2023-05-11T14:26:45.630Z,23.3
2023-05-11T14:32:40.680Z,22.9
2023-05-11T14:38:33.797Z,22.6
2023-05-11T14:44:25.923Z,22.1
2023-05-11T14:50:18.050Z,21.5
2023-05-11T14:56:10.507Z,20.8
2023-05-11T15:02:17.411Z,20.2
2023-05-11T15:08:18.500Z,19.6
2023-05-11T15:14:18.020Z,19
2023-05-11T15:20:11.400Z,18.4
2023-05-11T15:26:03.777Z,17.9
2023-05-11T15:31:58.578Z,17.4
2023-05-11T15:38:07.240Z,16.9
2023-05-11T15:44:00.844Z,16.5
2023-05-11T15:49:40.332Z,16.1
2023-05-11T15:55:32.880Z,15.8
2023-05-11T16:01:27.298Z,15.4
2023-05-11T16:07:22.564Z,15.1
2023-05-11T16:13:16.677Z,14.9
2023-05-11T16:19:13.744Z,14.6
2023-05-11T16:25:08.939Z,14.4
2023-05-11T16:31:18.256Z,14.1
2023-05-11T16:37:16.486Z,13.9
2023-05-11T16:43:10.584Z,13.8
2023-05-11T16:49:06.509Z,13.6
2023-05-11T16:55:06.802Z,13.4
2023-05-11T17:01:09.064Z,13.3
2023-05-11T17:07:10.127Z,13.1
2023-05-11T17:13:10.628Z,13
2023-05-11T17:19:11.590Z,12.9
2023-05-11T17:25:12.013Z,12.8
2023-05-11T17:31:53.231Z,12.6
2023-05-11T17:38:07.015Z,12.5
2023-05-11T17:44:08.255Z,12.4
2023-05-11T17:50:10.086Z,12.4
2023-05-11T17:56:10.519Z,12.3
2023-05-11T18:02:11.827Z,12.3
2023-05-11T18:08:27.372Z,12.1
2023-05-11T18:14:30.150Z,12.1
2023-05-11T18:20:16.613Z,12
2023-05-11T18:26:16.548Z,12
2023-05-11T18:32:17.601Z,11.9
2023-05-11T18:38:02.441Z,11.9
2023-05-11T18:44:03.802Z,11.9
2023-05-11T18:50:06.919Z,11.9
2023-05-11T18:56:23.613Z,11.8
2023-05-11T19:02:35.782Z,11.8
2023-05-11T19:08:35.829Z,11.8
2023-05-11T19:14:40.087Z,11.8
2023-05-11T19:20:42.735Z,11.7
2023-05-11T19:26:52.319Z,11.7
2023-05-11T19:32:56.150Z,11.7
2023-05-11T19:38:56.934Z,11.7
2023-05-11T19:45:49.910Z,11.6
2023-05-11T19:51:54.815Z,11.6
2023-05-11T19:57:55.025Z,11.6
2023-05-11T20:01:53.085Z,11.5
2023-05-11T20:07:55.916Z,11.5
2023-05-11T20:13:59.075Z,11.4
2023-05-11T20:20:00.475Z,11.4
2023-05-11T20:26:01.770Z,11.4
2023-05-11T20:32:03.418Z,11.4
2023-05-11T20:38:17.072Z,11.4
2023-05-11T20:44:16.391Z,11.3
2023-05-11T20:50:36.247Z,11.3
2023-05-11T20:56:37.141Z,11.3
2023-05-11T21:02:44.091Z,11.2
2023-05-11T21:08:44.094Z,11.1
2023-05-11T21:14:41.302Z,11.1
2023-05-11T21:20:39.844Z,11
2023-05-11T21:26:19.777Z,11
2023-05-11T21:31:58.182Z,10.9
2023-05-11T21:37:21.422Z,10.8
2023-05-11T21:42:58.430Z,10.8
2023-05-11T21:48:18.683Z,10.7
2023-05-11T21:53:54.727Z,10.4
2023-05-11T21:59:30.617Z,10.3
2023-05-11T22:05:08.962Z,10
2023-05-11T22:10:53.115Z,9.8
2023-05-11T22:16:28.815Z,9.8
2023-05-11T22:22:05.029Z,9.6
2023-05-11T22:27:41.142Z,9.4
2023-05-11T22:33:17.675Z,9.2
2023-05-11T22:38:38.124Z,9.1
2023-05-11T22:43:59.332Z,8.9
2023-05-11T22:49:20.581Z,8.8
2023-05-11T22:54:40.977Z,8.6
2023-05-11T22:59:46.657Z,8.5
2023-05-11T23:05:09.174Z,8.4
2023-05-11T23:10:44.677Z,8.3
2023-05-11T23:16:05.356Z,8.2
2023-05-11T23:21:27.126Z,8.1
2023-05-11T23:26:32.008Z,8
2023-05-11T23:31:53.249Z,7.9
2023-05-11T23:37:14.651Z,7.8
2023-05-11T23:42:35.788Z,7.7
2023-05-11T23:48:12.708Z,7.6
2023-05-11T23:53:33.449Z,7.6
2023-05-11T23:59:10.634Z,7.5
